Time;durP1;ratioP1;P1;durP2;ratioP2;P2;SDS_P1;SDS_P2;PMS_P1;PMS_P2;Temp;Humidity;BMP_temperature;BMP_pressure;BME280_temperature;BME280_humidity;BME280_pressure;Samples;Min_cycle;Max_cycle;Signal;HPM_P1;HPM_P2
2022/03/05 13:28:33;;;;;;;5.30;3.67;;;16.40;64.20;;;;;;2283092;62;30066;-80
2022/03/05 13:31:02;;;;;;;7.90;4.25;;;16.40;64.60;;;;;;2274606;62;30387;-78
2022/03/05 13:33:45;;;;;;;5.63;4.28;;;16.40;65.30;;;;;;2267233;62;30201;-79
2022/03/05 13:36:12;;;;;;;5.63;4.40;;;16.50;64.60;;;;;;2274865;62;30942;-77
2022/03/05 13:38:38;;;;;;;5.82;3.97;;;16.50;66.50;;;;;;2267295;62;30135;-76
2022/03/05 13:41:06;;;;;;;5.65;3.90;;;16.60;66.80;;;;;;2274853;62;30293;-79
2022/03/05 13:43:36;;;;;;;6.15;3.95;;;16.70;66.90;;;;;;2267261;62;30156;-78
2022/03/05 13:46:05;;;;;;;6.60;4.97;;;16.70;67.00;;;;;;2274761;62;30955;-79
2022/03/05 13:48:31;;;;;;;7.25;4.75;;;16.80;67.00;;;;;;2267571;62;31100;-79
2022/03/05 13:51:15;;;;;;;6.95;4.72;;;16.90;66.90;;;;;;2275843;62;30167;-78
2022/03/05 13:53:46;;;;;;;7.78;5.28;;;17.00;64.50;;;;;;2261141;62;30254;-78
2022/03/05 13:56:13;;;;;;;5.63;4.90;;;17.20;66.20;;;;;;2274737;62;30204;-78
2022/03/05 13:58:39;;;;;;;6.65;4.28;;;17.80;65.40;;;;;;2267258;62;30679;-75
2022/03/05 14:01:16;;;;;;;9.27;5.00;;;18.30;65.50;;;;;;2267478;62;30240;-83
2022/03/05 14:04:08;;;;;;;9.18;5.30;;;19.00;63.80;;;;;;2267574;62;30124;-73
2022/03/05 14:06:47;;;;;;;9.73;4.78;;;19.40;62.30;;;;;;2267483;62;30282;-75
2022/03/05 14:09:27;;;;;;;9.93;4.95;;;19.70;63.60;;;;;;2267833;62;30334;-78
2022/03/05 14:12:23;;;;;;;7.78;4.80;;;19.80;65.90;;;;;;2267441;62;30160;-76
2022/03/05 14:14:55;;;;;;;11.95;5.05;;;19.80;60.70;;;;;;2273924;62;30497;-75
2022/03/05 14:17:30;;;;;;;6.55;5.20;;;19.90;64.40;;;;;;2267588;62;30138;-76
2022/03/05 14:20:08;;;;;;;10.35;5.25;;;20.10;62.60;;;;;;2274455;62;30760;-75
2022/03/05 14:22:38;;;;;;;8.10;5.25;;;20.20;61.00;;;;;;2274688;62;30050;-73
2022/03/05 14:25:05;;;;;;;7.47;4.88;;;20.50;62.50;;;;;;2274358;62;30022;-74
2022/03/05 14:27:31;;;;;;;9.23;4.80;;;20.90;61.60;;;;;;2274219;62;30004;-73
2022/03/05 14:29:56;;;;;;;10.50;5.45;;;21.20;60.00;;;;;;2274297;62;30082;-71
2022/03/05 14:32:24;;;;;;;9.68;4.95;;;21.00;58.50;;;;;;2274584;62;30259;-73
2022/03/05 14:34:50;;;;;;;8.15;5.25;;;20.60;57.70;;;;;;2274365;62;30174;-74
2022/03/05 14:37:15;;;;;;;12.60;5.30;;;20.30;57.70;;;;;;2274542;62;30163;-72
2022/03/05 14:39:41;;;;;;;11.00;5.22;;;20.00;57.70;;;;;;2269531;62;30274;-73
2022/03/05 14:42:07;;;;;;;11.55;4.90;;;19.60;57.70;;;;;;2269065;62;30091;-72
2022/03/05 14:44:33;;;;;;;8.00;5.15;;;19.40;58.20;;;;;;2269103;62;30036;-72
2022/03/05 14:46:59;;;;;;;7.78;5.45;;;19.20;57.60;;;;;;2268679;62;31939;-73
2022/03/05 14:49:25;;;;;;;53.63;7.60;;;19.00;57.70;;;;;;2269324;62;30540;-74
2022/03/05 14:51:51;;;;;;;9.85;5.20;;;18.80;57.70;;;;;;2254964;62;30217;-74
2022/03/05 14:54:17;;;;;;;6.43;5.30;;;18.70;57.70;;;;;;2268908;62;30127;-75
2022/03/05 14:56:43;;;;;;;11.68;5.32;;;18.50;57.80;;;;;;2261521;62;30567;-74
2022/03/05 14:59:09;;;;;;;10.30;5.70;;;18.30;57.60;;;;;;2261807;62;30497;-73
2022/03/05 15:01:36;;;;;;;12.80;5.35;;;18.20;57.60;;;;;;2268909;62;30415;-74
2022/03/05 15:04:05;;;;;;;20.75;6.28;;;18.10;57.60;;;;;;2268750;62;30311;-71
2022/03/05 15:06:32;;;;;;;32.88;7.07;;;18.00;57.50;;;;;;2268770;62;31054;-75
2022/03/05 15:08:58;;;;;;;12.38;5.85;;;17.90;58.10;;;;;;2254836;62;30172;-73
2022/03/05 15:11:23;;;;;;;9.70;5.53;;;17.80;58.00;;;;;;2269029;62;30177;-72
2022/03/05 15:13:49;;;;;;;11.73;5.97;;;17.80;58.10;;;;;;2261580;62;30128;-72
2022/03/05 15:16:15;;;;;;;15.50;6.22;;;17.70;57.70;;;;;;2268789;62;30185;-70
2022/03/05 15:18:41;;;;;;;10.68;5.68;;;17.60;57.80;;;;;;2261454;62;30748;-73
2022/03/05 15:21:07;;;;;;;7.93;5.63;;;17.60;57.90;;;;;;2268742;62;30341;-73
2022/03/05 15:23:33;;;;;;;12.73;5.57;;;17.50;58.00;;;;;;2268556;62;30156;-74
2022/03/05 15:25:59;;;;;;;9.15;5.47;;;17.50;58.00;;;;;;2264181;62;29991;-74
2022/03/05 15:28:25;;;;;;;9.27;5.88;;;17.40;58.20;;;;;;2260597;63;30096;-73
2022/03/05 15:30:51;;;;;;;13.27;6.57;;;17.40;58.10;;;;;;2260410;63;30120;-69
2022/03/05 15:33:18;;;;;;;10.00;5.72;;;17.40;58.00;;;;;;2253254;63;30293;-71
2022/03/05 15:35:46;;;;;;;11.07;5.75;;;17.40;58.00;;;;;;2260617;63;30978;-72
2022/03/05 15:38:14;;;;;;;9.48;5.43;;;17.60;57.60;;;;;;2260324;63;30154;-73
2022/03/05 15:40:40;;;;;;;10.75;5.50;;;18.00;56.90;;;;;;2261037;63;30162;-72
2022/03/05 15:43:06;;;;;;;11.32;5.63;;;18.50;55.70;;;;;;2246533;63;30310;-71
2022/03/05 15:45:31;;;;;;;12.93;5.88;;;19.00;55.10;;;;;;2260653;63;30148;-71
2022/03/05 15:47:57;;;;;;;16.25;5.63;;;19.40;54.40;;;;;;2259956;63;30693;-70
2022/03/05 15:50:23;;;;;;;14.30;6.53;;;19.50;53.90;;;;;;2259922;63;30273;-74
2022/03/05 15:52:49;;;;;;;15.73;6.40;;;19.40;54.10;;;;;;2260324;63;30322;-75
2022/03/05 15:55:15;;;;;;;11.55;5.43;;;19.10;54.10;;;;;;2260611;63;30330;-75
2022/03/05 15:57:41;;;;;;;13.10;6.05;;;18.70;54.60;;;;;;2260366;63;30570;-75
2022/03/05 16:00:09;;;;;;;10.40;6.00;;;18.60;55.00;;;;;;2260657;63;29999;-73
2022/03/05 16:02:34;;;;;;;11.40;6.30;;;18.40;55.10;;;;;;2253336;63;30136;-70
2022/03/05 16:05:01;;;;;;;7.78;5.75;;;18.20;55.50;;;;;;2260287;63;30879;-73
2022/03/05 16:07:26;;;;;;;9.45;5.43;;;18.10;55.80;;;;;;2253180;63;30189;-73
2022/03/05 16:09:52;;;;;;;11.35;5.47;;;17.90;55.90;;;;;;2253138;63;30075;-73
2022/03/05 16:12:18;;;;;;;8.80;5.38;;;17.80;55.90;;;;;;2260227;63;30508;-75
2022/03/05 16:14:44;;;;;;;8.52;5.55;;;17.70;55.90;;;;;;2260546;63;30119;-74
2022/03/05 16:17:10;;;;;;;11.63;5.47;;;17.50;55.90;;;;;;2260355;63;30183;-78
2022/03/05 16:19:36;;;;;;;10.23;5.30;;;17.40;56.20;;;;;;2252992;63;30113;-79
2022/03/05 16:22:02;;;;;;;7.03;4.53;;;17.50;56.90;;;;;;2260149;63;30334;-74
2022/03/05 16:24:27;;;;;;;5.90;4.60;;;17.50;57.10;;;;;;2260108;63;30033;-75
2022/03/05 16:26:53;;;;;;;11.55;4.85;;;17.50;57.30;;;;;;2259521;63;30726;-75
2022/03/05 16:29:19;;;;;;;6.35;4.53;;;17.50;57.40;;;;;;2259281;63;30245;-75
2022/03/05 16:31:45;;;;;;;6.43;4.25;;;17.50;57.20;;;;;;2260030;63;30090;-75
2022/03/05 16:34:12;;;;;;;8.70;4.32;;;17.50;57.20;;;;;;2259131;63;32451;-75
2022/03/05 16:36:38;;;;;;;8.23;4.28;;;17.60;57.00;;;;;;2259819;63;30326;-75
2022/03/05 16:39:08;;;;;;;5.32;4.32;;;17.50;56.90;;;;;;2260133;63;30125;-75
2022/03/05 16:41:34;;;;;;;8.60;4.13;;;17.50;57.00;;;;;;2259566;63;30411;-75
2022/03/05 16:44:00;;;;;;;5.03;4.40;;;17.40;57.20;;;;;;2260415;63;30190;-75
2022/03/05 16:46:29;;;;;;;5.53;3.92;;;17.20;57.50;;;;;;2260188;63;30509;-75
2022/03/05 16:48:55;;;;;;;6.00;4.10;;;17.10;57.80;;;;;;2253250;63;30261;-75
2022/03/05 16:51:21;;;;;;;8.95;4.00;;;17.00;58.10;;;;;;2260491;63;30285;-75
2022/03/05 16:53:47;;;;;;;8.23;4.22;;;16.90;58.40;;;;;;2252943;63;30228;-75
2022/03/05 16:56:13;;;;;;;6.15;4.03;;;16.80;58.60;;;;;;2253167;63;30861;-75
2022/03/05 16:58:39;;;;;;;5.88;3.72;;;16.70;58.70;;;;;;2260224;63;30417;-75
2022/03/05 17:01:08;;;;;;;6.40;3.88;;;16.50;58.90;;;;;;2259922;63;30129;-75
2022/03/05 17:03:38;;;;;;;5.03;4.13;;;16.40;59.20;;;;;;2253173;63;30279;-75
2022/03/05 17:06:05;;;;;;;3.50;3.20;;;16.40;59.40;;;;;;2260224;63;30637;-75
2022/03/05 17:08:35;;;;;;;4.18;3.60;;;16.30;59.70;;;;;;2259943;63;30145;-75
2022/03/05 17:11:00;;;;;;;3.90;3.60;;;16.20;60.10;;;;;;2253211;63;30311;-75
2022/03/05 17:13:26;;;;;;;4.65;3.75;;;16.20;60.10;;;;;;2252906;63;30817;-75
2022/03/05 17:15:52;;;;;;;6.07;3.88;;;16.10;60.40;;;;;;2259914;63;30304;-75
2022/03/05 17:18:18;;;;;;;4.80;3.63;;;16.00;60.40;;;;;;2252896;63;30027;-75
2022/03/05 17:20:44;;;;;;;3.97;3.58;;;16.00;60.70;;;;;;2260144;63;30052;-75
2022/03/05 17:23:10;;;;;;;4.10;3.65;;;15.90;60.70;;;;;;2259846;63;32033;-75
2022/03/05 17:25:36;;;;;;;4.60;3.47;;;15.90;61.00;;;;;;2260088;63;30651;-75
2022/03/05 17:28:02;;;;;;;4.25;3.85;;;15.80;61.10;;;;;;2252799;63;30333;-76
2022/03/05 17:30:28;;;;;;;5.15;3.65;;;15.80;61.30;;;;;;2252675;63;30150;-75
2022/03/05 17:32:55;;;;;;;4.15;3.53;;;15.70;61.30;;;;;;2252908;63;31273;-75
2022/03/05 17:35:22;;;;;;;3.90;3.50;;;15.70;61.60;;;;;;2259998;63;31591;-75
2022/03/05 17:37:48;;;;;;;3.92;3.58;;;15.70;61.80;;;;;;2259828;63;30379;-75
2022/03/05 17:40:15;;;;;;;5.85;3.60;;;15.60;62.00;;;;;;2259978;63;30208;-75
2022/03/05 17:42:41;;;;;;;5.45;3.90;;;15.60;62.00;;;;;;2259754;63;30929;-75
2022/03/05 17:45:13;;;;;;;4.72;3.83;;;15.60;62.10;;;;;;2259850;63;30698;-75
2022/03/05 17:47:42;;;;;;;4.35;3.90;;;15.50;62.20;;;;;;2252862;63;30141;-75
2022/03/05 17:50:08;;;;;;;5.25;3.42;;;15.50;62.30;;;;;;2246066;63;30102;-75
2022/03/05 17:52:34;;;;;;;6.68;3.55;;;15.50;62.40;;;;;;2252648;63;30080;-75
2022/03/05 17:55:00;;;;;;;3.58;3.28;;;15.40;62.40;;;;;;2259858;63;30161;-75
2022/03/05 17:57:26;;;;;;;4.75;3.55;;;15.40;62.50;;;;;;2259655;63;30294;-75
2022/03/05 17:59:52;;;;;;;4.03;3.60;;;15.30;62.60;;;;;;2259785;63;30177;-75
2022/03/05 18:02:18;;;;;;;4.35;3.67;;;15.30;62.80;;;;;;2252615;63;30161;-75
2022/03/05 18:04:43;;;;;;;4.15;3.85;;;15.30;62.80;;;;;;2259555;63;29993;-75
2022/03/05 18:07:09;;;;;;;3.85;3.55;;;15.20;62.80;;;;;;2259836;63;30628;-75
2022/03/05 18:09:35;;;;;;;5.43;3.80;;;15.20;63.00;;;;;;2259787;63;30458;-75
2022/03/05 18:12:01;;;;;;;3.60;3.30;;;15.10;63.00;;;;;;2259521;63;30150;-75
2022/03/05 18:14:27;;;;;;;3.95;3.47;;;15.10;63.10;;;;;;2260588;63;30198;-75
2022/03/05 18:16:52;;;;;;;4.65;3.70;;;15.10;63.20;;;;;;2261060;63;30203;-75
2022/03/05 18:19:18;;;;;;;4.40;3.60;;;15.00;63.30;;;;;;2260905;63;30458;-75
2022/03/05 18:21:44;;;;;;;4.00;3.60;;;15.00;63.40;;;;;;2261053;63;30136;-75
2022/03/05 18:24:10;;;;;;;3.90;3.60;;;15.00;63.50;;;;;;2261042;63;30038;-75
2022/03/05 18:26:36;;;;;;;4.03;3.70;;;15.00;63.60;;;;;;2260694;63;30530;-75
2022/03/05 18:29:02;;;;;;;3.85;3.55;;;14.90;63.70;;;;;;2261064;63;30287;-75
2022/03/05 18:31:28;;;;;;;4.28;3.88;;;14.90;63.80;;;;;;2253766;63;30048;-75
2022/03/05 18:33:54;;;;;;;3.88;3.55;;;14.90;63.90;;;;;;2260770;63;30477;-75
2022/03/05 18:36:21;;;;;;;4.22;3.83;;;14.80;64.00;;;;;;2253694;63;30153;-75
2022/03/05 18:38:47;;;;;;;4.03;3.63;;;14.80;63.90;;;;;;2261137;63;30422;-74
2022/03/05 18:41:13;;;;;;;3.80;3.33;;;14.80;64.10;;;;;;2261061;63;30947;-75
2022/03/05 18:43:39;;;;;;;4.75;3.80;;;14.80;64.30;;;;;;2253697;63;30066;-75
2022/03/05 18:46:05;;;;;;;3.92;3.50;;;14.70;64.30;;;;;;2260655;63;31280;-75
2022/03/05 18:48:31;;;;;;;3.50;3.20;;;14.70;64.50;;;;;;2260950;63;30254;-75
2022/03/05 18:50:57;;;;;;;3.47;3.17;;;14.70;64.50;;;;;;2260868;63;30764;-75
2022/03/05 18:53:24;;;;;;;3.80;3.47;;;14.70;64.50;;;;;;2260660;63;31312;-75
2022/03/05 18:55:52;;;;;;;4.13;3.70;;;14.70;64.60;;;;;;2253599;63;30237;-75
2022/03/05 18:58:19;;;;;;;4.53;3.80;;;14.60;64.60;;;;;;2247368;63;30357;-75
2022/03/05 19:00:46;;;;;;;4.78;3.15;;;14.60;64.70;;;;;;2260725;63;31029;-75
2022/03/05 19:03:11;;;;;;;4.03;3.65;;;14.60;64.70;;;;;;2240306;63;30469;-75
2022/03/05 19:05:37;;;;;;;3.88;3.58;;;14.60;64.70;;;;;;2260843;63;30396;-75
2022/03/05 19:08:03;;;;;;;3.40;3.15;;;14.60;64.80;;;;;;2253345;63;30295;-75
2022/03/05 19:10:29;;;;;;;3.75;3.40;;;14.60;64.80;;;;;;2260805;63;30044;-75
2022/03/05 19:12:55;;;;;;;3.85;3.55;;;14.60;64.90;;;;;;2260768;63;30274;-75
2022/03/05 19:15:21;;;;;;;3.63;3.33;;;14.50;65.00;;;;;;2260521;63;30223;-75
2022/03/05 19:17:47;;;;;;;4.18;3.20;;;14.50;65.00;;;;;;2253576;63;30247;-75
2022/03/05 19:20:14;;;;;;;3.67;3.38;;;14.50;65.00;;;;;;2253561;63;30301;-75
2022/03/05 19:22:40;;;;;;;3.58;3.28;;;14.40;65.00;;;;;;2260531;63;30608;-75
2022/03/05 19:25:09;;;;;;;3.75;3.42;;;14.40;65.90;;;;;;2260759;63;30233;-75
2022/03/05 19:27:36;;;;;;;3.65;3.35;;;14.40;65.20;;;;;;2253481;63;30338;-74
2022/03/05 19:30:05;;;;;;;3.97;3.67;;;14.40;65.20;;;;;;2253297;63;32063;-75
2022/03/05 19:32:31;;;;;;;3.45;3.13;;;14.40;65.30;;;;;;2260709;63;30474;-75
2022/03/05 19:34:57;;;;;;;3.70;3.40;;;14.40;65.30;;;;;;2260818;63;30849;-75
2022/03/05 19:37:25;;;;;;;3.92;3.50;;;14.40;65.30;;;;;;2260460;63;30408;-75
2022/03/05 19:39:51;;;;;;;3.45;3.17;;;14.30;65.40;;;;;;2260658;63;30010;-75
2022/03/05 19:42:16;;;;;;;3.70;3.40;;;14.40;65.50;;;;;;2260369;63;30415;-75
2022/03/05 19:44:42;;;;;;;3.70;3.40;;;14.30;65.50;;;;;;2260690;63;30352;-75
2022/03/05 19:47:08;;;;;;;4.97;3.35;;;14.30;65.50;;;;;;2260061;63;30815;-74
2022/03/05 19:49:34;;;;;;;6.00;3.40;;;14.30;65.60;;;;;;2246276;63;30942;-71
2022/03/05 19:52:00;;;;;;;10.77;3.72;;;14.30;65.80;;;;;;2260186;63;30417;-77
2022/03/05 19:54:26;;;;;;;3.17;2.97;;;14.30;66.50;;;;;;2253233;63;30121;-79
2022/03/05 19:56:52;;;;;;;5.43;3.00;;;14.40;66.30;;;;;;2260287;63;30305;-75
2022/03/05 19:59:18;;;;;;;3.00;2.60;;;14.60;66.20;;;;;;2260611;63;30721;-75
2022/03/05 20:01:47;;;;;;;5.10;2.88;;;14.70;66.10;;;;;;2252100;63;30427;-74
2022/03/05 20:04:14;;;;;;;4.25;2.60;;;14.80;66.40;;;;;;2256649;62;30308;-73
2022/03/05 20:06:40;;;;;;;2.70;2.50;;;14.90;66.10;;;;;;2264741;62;30431;-74
2022/03/05 20:09:06;;;;;;;2.47;2.28;;;15.00;66.00;;;;;;2258794;62;30621;-74
2022/03/05 20:11:32;;;;;;;2.92;2.60;;;15.10;65.90;;;;;;2260837;62;30334;-73
2022/03/05 20:13:57;;;;;;;3.28;2.50;;;15.20;65.80;;;;;;2254985;63;30266;-77
2022/03/05 20:16:23;;;;;;;3.60;2.40;;;15.30;65.70;;;;;;2260131;63;30148;-75
2022/03/05 20:18:49;;;;;;;3.20;2.30;;;15.40;65.60;;;;;;2259997;63;30199;-76
2022/03/05 20:21:15;;;;;;;2.80;2.30;;;15.50;65.40;;;;;;2253057;63;30269;-78
2022/03/05 20:23:41;;;;;;;2.50;2.30;;;15.60;65.20;;;;;;2260311;63;30065;-75
2022/03/05 20:26:07;;;;;;;2.72;2.30;;;15.60;65.00;;;;;;2259982;63;31499;-77
2022/03/05 20:28:33;;;;;;;2.53;2.33;;;15.70;65.10;;;;;;2260092;63;30858;-76
2022/03/05 20:30:59;;;;;;;2.92;2.55;;;15.70;65.00;;;;;;2260118;63;31820;-76
2022/03/05 20:33:25;;;;;;;2.45;2.25;;;15.70;65.30;;;;;;2260046;63;30120;-75
2022/03/05 20:35:51;;;;;;;2.72;2.22;;;15.70;65.40;;;;;;2260034;63;30309;-75
2022/03/05 20:38:19;;;;;;;3.75;2.30;;;15.70;65.40;;;;;;2260106;63;32177;-75
2022/03/05 20:40:45;;;;;;;2.78;2.58;;;15.70;65.50;;;;;;2260073;63;30133;-76
2022/03/05 20:43:11;;;;;;;2.20;2.00;;;15.80;65.50;;;;;;2260068;63;30146;-76
2022/03/05 20:45:37;;;;;;;1.85;1.75;;;15.80;65.50;;;;;;2252759;63;30265;-75
2022/03/05 20:48:06;;;;;;;2.42;2.22;;;15.80;65.50;;;;;;2260204;63;31024;-76
2022/03/05 20:50:33;;;;;;;2.25;2.15;;;15.80;65.50;;;;;;2262516;62;30700;-74
2022/03/05 20:52:59;;;;;;;3.20;2.00;;;15.90;65.70;;;;;;2260593;62;30364;-78
2022/03/05 20:55:25;;;;;;;2.17;1.98;;;16.00;65.70;;;;;;2268112;62;30176;-78
2022/03/05 20:57:51;;;;;;;2.00;1.90;;;16.00;65.60;;;;;;2261839;62;30383;-78
2022/03/05 21:00:18;;;;;;;2.47;2.17;;;16.10;65.60;;;;;;2267607;62;30441;-78
2022/03/05 21:02:44;;;;;;;2.15;1.95;;;16.20;65.60;;;;;;2268206;62;30016;-77
2022/03/05 21:05:10;;;;;;;1.98;1.88;;;16.20;65.30;;;;;;2269719;62;30153;-76
2022/03/05 21:07:36;;;;;;;2.00;1.80;;;16.30;65.30;;;;;;2261123;62;30404;-76
2022/03/05 21:10:04;;;;;;;2.67;2.03;;;16.30;65.10;;;;;;2268111;62;30238;-76
2022/03/05 21:12:31;;;;;;;2.38;1.70;;;16.40;65.10;;;;;;2268217;62;30191;-76
2022/03/05 21:14:57;;;;;;;1.70;1.60;;;16.40;65.10;;;;;;2260682;62;30139;-76
2022/03/05 21:17:23;;;;;;;2.47;2.10;;;16.50;65.00;;;;;;2254063;62;30841;-76
2022/03/05 21:19:49;;;;;;;1.80;1.70;;;16.50;65.20;;;;;;2268151;62;30703;-76
2022/03/05 21:22:15;;;;;;;1.80;1.70;;;16.50;65.00;;;;;;2267997;62;30389;-76
2022/03/05 21:24:41;;;;;;;2.00;1.90;;;16.50;64.90;;;;;;2260860;62;30083;-76
2022/03/05 21:27:07;;;;;;;1.70;1.60;;;16.50;65.00;;;;;;2259977;62;31377;-76
2022/03/05 21:29:33;;;;;;;1.85;1.75;;;16.60;64.80;;;;;;2260659;62;30377;-76
2022/03/05 21:31:58;;;;;;;1.80;1.70;;;16.60;64.80;;;;;;2268172;62;30126;-76
2022/03/05 21:34:25;;;;;;;1.80;1.58;;;16.60;64.70;;;;;;2268158;62;30152;-77
2022/03/05 21:36:51;;;;;;;2.58;1.75;;;16.60;64.80;;;;;;2267682;62;31319;-77
2022/03/05 21:39:19;;;;;;;7.10;2.33;;;16.60;64.70;;;;;;2260786;62;32225;-74
2022/03/05 21:41:45;;;;;;;2.45;1.70;;;16.60;64.50;;;;;;2267856;62;30146;-74
2022/03/05 21:44:12;;;;;;;2.05;1.80;;;16.70;64.40;;;;;;2268001;62;30306;-76
2022/03/05 21:46:40;;;;;;;1.52;1.45;;;16.60;64.40;;;;;;2260765;62;30230;-76
2022/03/05 21:49:06;;;;;;;1.70;1.50;;;16.60;64.10;;;;;;2268245;62;30710;-75
2022/03/05 21:51:32;;;;;;;2.22;1.70;;;16.70;64.20;;;;;;2267490;62;30399;-75
2022/03/05 21:53:57;;;;;;;1.98;1.77;;;16.70;64.20;;;;;;2268647;62;30626;-76
2022/03/05 21:56:24;;;;;;;2.38;1.90;;;16.80;64.10;;;;;;2261035;62;30190;-75
2022/03/05 21:58:52;;;;;;;2.50;1.73;;;16.80;64.10;;;;;;2254840;62;30802;-75
2022/03/05 22:01:18;;;;;;;1.77;1.67;;;16.80;64.00;;;;;;2260951;62;30347;-75
2022/03/05 22:03:46;;;;;;;3.38;1.75;;;16.80;63.80;;;;;;2254800;62;30784;-74
2022/03/05 22:06:12;;;;;;;1.90;1.80;;;16.80;63.90;;;;;;2261814;62;30107;-74
2022/03/05 22:08:37;;;;;;;1.67;1.58;;;16.90;63.90;;;;;;2269072;62;30120;-74
2022/03/05 22:11:04;;;;;;;1.75;1.50;;;16.90;63.70;;;;;;2261597;62;30101;-74
2022/03/05 22:13:31;;;;;;;1.58;1.50;;;16.90;63.70;;;;;;2269168;62;30174;-74
2022/03/05 22:15:57;;;;;;;1.67;1.45;;;16.90;63.60;;;;;;2269069;62;30738;-74
2022/03/05 22:18:23;;;;;;;1.70;1.60;;;16.90;64.30;;;;;;2261475;62;30535;-74
2022/03/05 22:20:52;;;;;;;2.38;1.60;;;16.90;63.60;;;;;;2269136;62;30125;-74
2022/03/05 22:23:18;;;;;;;2.60;1.80;;;16.90;63.60;;;;;;2268961;62;29953;-74
2022/03/05 22:25:44;;;;;;;1.70;1.60;;;16.90;63.50;;;;;;2268613;62;30205;-74
2022/03/05 22:28:10;;;;;;;1.80;1.70;;;17.00;63.40;;;;;;2268544;62;30615;-73
2022/03/05 22:30:37;;;;;;;1.65;1.55;;;17.00;63.30;;;;;;2263400;62;30274;-71
2022/03/05 22:33:07;;;;;;;2.80;1.60;;;17.00;63.30;;;;;;2259015;62;30199;-71
2022/03/05 22:35:34;;;;;;;1.90;1.70;;;17.00;63.10;;;;;;2245724;63;30526;-70
2022/03/05 22:37:59;;;;;;;2.28;1.58;;;17.00;63.00;;;;;;2258770;63;30129;-71
2022/03/05 22:40:27;;;;;;;1.63;1.52;;;16.90;62.90;;;;;;2259089;62;30445;-71
2022/03/05 22:42:54;;;;;;;3.25;1.60;;;16.90;62.80;;;;;;2259063;62;30222;-71
2022/03/05 22:45:21;;;;;;;1.77;1.67;;;16.90;62.80;;;;;;2250944;62;30287;-73
2022/03/05 22:47:51;;;;;;;3.67;1.85;;;16.90;62.70;;;;;;2259241;63;30090;-71
2022/03/05 22:50:17;;;;;;;2.20;1.58;;;16.90;62.70;;;;;;2251838;63;30807;-70
2022/03/05 22:52:42;;;;;;;3.78;2.53;;;16.90;62.80;;;;;;2245305;63;30108;-71
2022/03/05 22:55:09;;;;;;;7.28;2.90;;;16.90;62.90;;;;;;2245497;63;30875;-72
2022/03/05 22:57:35;;;;;;;5.75;2.78;;;16.90;62.80;;;;;;2259324;62;30419;-75
2022/03/05 23:00:07;;;;;;;4.32;2.50;;;16.90;62.80;;;;;;2251843;63;30393;-75
2022/03/05 23:05:17;;;;;;;4.80;2.40;;;16.90;63.00;;;;;;2259548;63;30397;-74
2022/03/05 23:10:29;;;;;;;2.13;1.83;;;16.90;63.20;;;;;;2259453;63;30304;-73
2022/03/05 23:12:55;;;;;;;3.20;2.00;;;16.90;63.30;;;;;;2259537;63;30165;-74
2022/03/05 23:15:21;;;;;;;1.70;1.60;;;16.90;63.30;;;;;;2251722;63;30102;-74
2022/03/05 23:17:47;;;;;;;2.08;1.58;;;16.90;63.30;;;;;;2259268;63;30169;-74
2022/03/05 23:20:13;;;;;;;1.80;1.70;;;16.90;63.20;;;;;;2259012;62;30134;-73
2022/03/05 23:22:39;;;;;;;2.47;1.90;;;16.90;63.30;;;;;;2259169;62;30388;-73
2022/03/05 23:25:06;;;;;;;2.35;1.63;;;16.90;63.40;;;;;;2251788;63;31583;-73
2022/03/05 23:27:32;;;;;;;1.98;1.80;;;16.90;63.30;;;;;;2258772;62;30429;-75
2022/03/05 23:29:57;;;;;;;2.25;1.98;;;16.80;63.20;;;;;;2262571;62;30231;-74
2022/03/05 23:32:24;;;;;;;1.90;1.80;;;16.80;63.10;;;;;;2267018;62;30278;-73
2022/03/05 23:34:50;;;;;;;2.60;2.03;;;16.70;63.10;;;;;;2266930;62;30894;-74
2022/03/05 23:37:16;;;;;;;2.60;2.03;;;16.70;63.70;;;;;;2267058;62;30146;-73
2022/03/05 23:39:42;;;;;;;1.67;1.58;;;16.60;63.10;;;;;;2267405;62;30968;-73
2022/03/05 23:42:09;;;;;;;3.60;2.08;;;16.60;63.00;;;;;;2259841;62;30506;-77
2022/03/05 23:44:35;;;;;;;4.38;2.05;;;16.50;63.00;;;;;;2267432;62;30877;-74
2022/03/05 23:47:01;;;;;;;2.25;2.00;;;16.50;63.10;;;;;;2254998;63;30361;-74
2022/03/05 23:49:27;;;;;;;3.88;1.83;;;16.40;63.20;;;;;;2258150;62;30661;-74
2022/03/05 23:51:53;;;;;;;4.28;1.90;;;16.40;63.10;;;;;;2259042;62;30392;-75
2022/03/05 23:54:19;;;;;;;2.65;1.95;;;16.30;63.20;;;;;;2258316;62;30328;-74
2022/03/05 23:56:44;;;;;;;2.28;2.03;;;16.30;63.30;;;;;;2258799;62;30206;-77
